首页
METAR-TAF:

METAR-TAF

机场 :

Grazzanise, 意大利

纬度: 41-03N, 经度: 014-04E, 海拔: 9米

当前天气观测

该预报发布于52分钟前的12:55 UTC
风速2节,风向
温度 11°C
湿度 94%
气压 1005 hPa
能见度10公里或以上
散云层高于3000英尺
多云层高于7000英尺
小雨

METAR: LIRM 031255Z 01002KT 9999 -RA SCT030 BKN070 11/10 Q1005 RMK OVC VIS MIN 9999 WIND THR06 01002KT BLU

时间: 14:47 (13:47 UTC)

预报

该预报发布于2小时和47分钟前的11:00 UTC
预报有效从03日的 12点(UTC)到 03日的 21点(UTC)
风速5节,风向多变
能见度10公里或以上
散云层高于3000英尺
多云层高于6000英尺
短暂存在
从 03日的 12点(UTC)到 03日的 15点(UTC)

TAF: LIRM 031100Z 0312/0321 VRB05KT 9999 SCT030 BKN060 TEMPO 0312/0315 RA

超过4000个机场的气象观测和天气预报(METAR&TAF报告)。

可查询的气象台以黄色和红色小点在地图上表示。

将鼠标移到小点上方,可查看气象台名称。

然后点击查看天气观测和预报。

如需切换地图:点击带黑十字的绿色按钮放大地图;点击带横线的绿色按钮缩小地图;或者点击绿色箭头查看邻近地区的地图。


METAR-TAF: